createdAt,value
2023-04-11T00:02:13.973Z,11.74
2023-04-11T00:04:41.340Z,11.73
2023-04-11T00:07:09.290Z,11.73
2023-04-11T00:09:36.332Z,11.59
2023-04-11T00:12:03.799Z,11.54
2023-04-11T00:14:34.424Z,11.41
2023-04-11T00:17:01.466Z,11.64
2023-04-11T00:19:28.592Z,11.70
2023-04-11T00:21:58.632Z,11.68
2023-04-11T00:24:26.477Z,11.59
2023-04-11T00:26:53.877Z,11.37
2023-04-11T00:29:20.985Z,11.22
2023-04-11T00:31:48.680Z,11.21
2023-04-11T00:34:17.266Z,11.10
2023-04-11T00:36:44.534Z,11.20
2023-04-11T00:39:13.243Z,11.12
2023-04-11T00:41:40.519Z,11.12
2023-04-11T00:44:08.530Z,11.11
2023-04-11T00:46:35.968Z,11.23
2023-04-11T00:49:03.197Z,11.12
2023-04-11T00:51:30.505Z,11.15
2023-04-11T00:53:57.695Z,11.20
2023-04-11T00:56:24.869Z,11.00
2023-04-11T00:58:51.920Z,11.09
2023-04-11T01:01:19.987Z,11.09
2023-04-11T01:03:47.333Z,11.03
2023-04-11T01:06:14.978Z,11.13
2023-04-11T01:08:42.849Z,11.12
2023-04-11T01:11:10.659Z,11.06
2023-04-11T01:13:41.896Z,10.95
2023-04-11T01:16:10.176Z,11.04
2023-04-11T01:18:37.459Z,11.21
2023-04-11T01:21:05.001Z,11.30
2023-04-11T01:23:34.267Z,11.34
2023-04-11T01:26:01.410Z,11.23
2023-04-11T01:28:28.691Z,11.30
2023-04-11T01:30:55.919Z,11.35
2023-04-11T01:33:23.398Z,11.05
2023-04-11T01:35:50.534Z,10.87
2023-04-11T01:38:17.756Z,10.86
2023-04-11T01:40:45.323Z,11.09
2023-04-11T01:43:12.584Z,10.97
2023-04-11T01:45:40.000Z,11.04
2023-04-11T01:48:08.417Z,11.22
2023-04-11T01:50:35.908Z,11.17
2023-04-11T01:53:04.974Z,11.13
2023-04-11T01:55:32.076Z,11.20
2023-04-11T01:57:59.155Z,11.08
2023-04-11T02:00:26.269Z,10.93
2023-04-11T02:02:53.450Z,10.94
2023-04-11T02:05:20.744Z,10.95
2023-04-11T02:07:47.806Z,10.97
2023-04-11T02:10:18.349Z,11.01
2023-04-11T02:12:45.427Z,10.98
2023-04-11T02:15:13.271Z,11.02
2023-04-11T02:17:45.543Z,10.87
2023-04-11T02:20:13.641Z,10.99
2023-04-11T02:22:41.410Z,10.96
2023-04-11T02:25:08.616Z,10.83
2023-04-11T02:27:35.748Z,11.01
2023-04-11T02:30:06.108Z,11.04
2023-04-11T02:32:37.753Z,10.96
2023-04-11T02:35:05.219Z,11.13
2023-04-11T02:37:32.358Z,10.97
2023-04-11T02:39:59.380Z,10.95
2023-04-11T02:42:26.461Z,10.91
2023-04-11T02:44:54.502Z,11.02
2023-04-11T02:47:23.254Z,11.10
2023-04-11T02:49:50.540Z,11.12
2023-04-11T02:52:23.475Z,11.13
2023-04-11T02:54:50.513Z,11.11
2023-04-11T02:57:17.648Z,11.31
2023-04-11T02:59:44.849Z,11.32
2023-04-11T03:02:12.858Z,11.31
2023-04-11T03:04:40.219Z,11.29
2023-04-11T03:07:13.431Z,11.21
2023-04-11T03:09:40.568Z,11.36
2023-04-11T03:12:07.957Z,11.33
2023-04-11T03:14:39.532Z,11.33
2023-04-11T03:17:06.634Z,11.33
2023-04-11T03:19:34.115Z,11.37
2023-04-11T03:22:04.583Z,11.39
2023-04-11T03:24:32.339Z,11.38
2023-04-11T03:26:59.520Z,11.23
2023-04-11T03:29:27.116Z,11.11
2023-04-11T03:32:03.227Z,10.99
2023-04-11T03:34:33.941Z,10.97
2023-04-11T03:37:02.517Z,10.93
2023-04-11T03:39:30.104Z,11.04
2023-04-11T03:41:59.313Z,10.98
2023-04-11T03:44:27.258Z,10.84
2023-04-11T03:46:54.900Z,10.83
2023-04-11T03:49:22.065Z,10.87
2023-04-11T03:51:54.462Z,10.89
2023-04-11T03:54:21.911Z,11.00
2023-04-11T03:56:49.026Z,11.05
2023-04-11T03:59:21.377Z,11.10
2023-04-11T04:01:54.343Z,11.19
2023-04-11T04:04:21.567Z,11.18
2023-04-11T04:06:57.067Z,11.26
2023-04-11T04:09:31.656Z,11.05
2023-04-11T04:11:58.900Z,11.06
2023-04-11T04:14:36.569Z,11.13
2023-04-11T04:17:03.670Z,11.17
2023-04-11T04:19:30.754Z,11.15
2023-04-11T04:21:58.227Z,11.11
2023-04-11T04:24:39.404Z,11.23
2023-04-11T04:27:19.077Z,11.17
2023-04-11T04:29:49.690Z,11.12
2023-04-11T04:32:30.808Z,11.12
2023-04-11T04:35:02.782Z,11.12
2023-04-11T04:37:39.444Z,11.11
2023-04-11T04:40:14.133Z,11.19
2023-04-11T04:42:58.782Z,11.11
2023-04-11T04:45:37.404Z,11.05
2023-04-11T04:48:05.374Z,11.08
2023-04-11T04:50:32.602Z,11.07
2023-04-11T04:52:59.715Z,11.10
2023-04-11T04:55:28.956Z,11.08
2023-04-11T04:57:56.284Z,11.07
2023-04-11T05:00:23.511Z,10.98
2023-04-11T05:02:55.572Z,11.09
2023-04-11T05:05:25.890Z,11.10
2023-04-11T05:07:53.722Z,11.12
2023-04-11T05:10:21.101Z,11.23
2023-04-11T05:12:48.892Z,11.15
2023-04-11T05:15:16.186Z,11.09
2023-04-11T05:17:43.339Z,11.17
2023-04-11T05:20:11.963Z,11.21
2023-04-11T05:22:39.413Z,11.26
2023-04-11T05:25:08.989Z,11.29
2023-04-11T05:27:38.120Z,11.34
2023-04-11T05:30:06.377Z,11.40
2023-04-11T05:32:37.496Z,11.40
2023-04-11T05:35:05.966Z,11.29
2023-04-11T05:37:46.246Z,11.44
2023-04-11T05:40:13.380Z,11.35
2023-04-11T05:42:40.488Z,11.46
2023-04-11T05:45:07.886Z,11.34
2023-04-11T05:47:34.993Z,11.47
2023-04-11T05:50:02.177Z,11.61
2023-04-11T05:52:29.256Z,11.71
2023-04-11T05:54:56.321Z,11.84
2023-04-11T05:57:23.626Z,11.87
2023-04-11T05:59:52.938Z,11.93
2023-04-11T06:02:20.189Z,11.96
2023-04-11T06:04:47.395Z,12.40
2023-04-11T06:07:14.580Z,12.57
2023-04-11T06:09:42.583Z,12.92
2023-04-11T06:12:09.812Z,13.09
2023-04-11T06:14:39.527Z,13.20
2023-04-11T06:17:07.446Z,13.63
2023-04-11T06:19:34.509Z,13.71
2023-04-11T06:22:01.921Z,13.81
2023-04-11T06:24:39.753Z,13.88
2023-04-11T06:27:10.081Z,13.96
2023-04-11T06:29:37.662Z,13.96
2023-04-11T06:32:04.948Z,14.17
2023-04-11T06:34:32.241Z,14.03
2023-04-11T06:36:59.415Z,14.00
2023-04-11T06:39:26.558Z,13.92
2023-04-11T06:41:53.640Z,14.06
2023-04-11T06:44:25.855Z,14.41
2023-04-11T06:46:53.188Z,15.07
2023-04-11T06:49:20.746Z,15.27
2023-04-11T06:51:50.098Z,15.50
2023-04-11T06:54:18.157Z,15.92
2023-04-11T06:56:45.756Z,16.82
2023-04-11T06:59:13.309Z,17.17
2023-04-11T07:01:40.399Z,17.54
2023-04-11T07:04:08.103Z,17.35
2023-04-11T07:06:36.405Z,17.84
2023-04-11T07:09:04.044Z,18.42
2023-04-11T07:11:31.286Z,18.30
2023-04-11T07:14:01.837Z,18.76
2023-04-11T07:16:29.005Z,18.42
2023-04-11T07:18:56.281Z,18.62
2023-04-11T07:21:23.453Z,18.55
2023-04-11T07:23:50.505Z,18.57
2023-04-11T07:26:17.886Z,18.69
2023-04-11T07:28:45.227Z,18.46
2023-04-11T07:31:12.708Z,18.82
2023-04-11T07:33:43.021Z,19.13
2023-04-11T07:36:11.003Z,19.19
2023-04-11T07:38:38.408Z,18.88
2023-04-11T07:41:05.655Z,19.78
2023-04-11T07:43:33.324Z,20.41
2023-04-11T07:46:00.752Z,20.65
2023-04-11T07:48:28.393Z,21.06
2023-04-11T07:50:55.537Z,20.17
2023-04-11T07:53:22.635Z,21.56
2023-04-11T07:55:49.825Z,22.16
2023-04-11T07:58:16.933Z,22.33
2023-04-11T08:00:44.021Z,22.04
2023-04-11T08:03:11.755Z,21.77
2023-04-11T08:05:39.169Z,21.51
2023-04-11T08:08:06.639Z,22.32
2023-04-11T08:10:33.929Z,21.97
2023-04-11T08:13:01.141Z,22.56
2023-04-11T08:15:28.206Z,22.98
2023-04-11T08:17:56.240Z,22.83
2023-04-11T08:20:24.071Z,23.47
2023-04-11T08:22:51.195Z,23.83
2023-04-11T08:25:22.703Z,24.23
2023-04-11T08:27:50.877Z,24.28
2023-04-11T08:30:18.064Z,24.16
2023-04-11T08:32:45.247Z,24.53
2023-04-11T08:35:12.426Z,25.23
2023-04-11T08:37:39.570Z,23.05
2023-04-11T08:40:07.040Z,24.61
2023-04-11T08:42:34.402Z,23.34
2023-04-11T08:45:03.126Z,23.33
2023-04-11T08:47:30.960Z,23.55
2023-04-11T08:49:58.063Z,23.66
2023-04-11T08:52:25.401Z,22.92
2023-04-11T08:54:56.249Z,23.70
2023-04-11T08:57:26.158Z,22.90
2023-04-11T08:59:57.367Z,23.19
2023-04-11T09:02:24.570Z,22.77
2023-04-11T09:04:52.064Z,23.48
2023-04-11T09:07:19.392Z,22.72
2023-04-11T09:09:46.550Z,22.95
2023-04-11T09:12:13.777Z,23.65
2023-04-11T09:14:41.596Z,22.90
2023-04-11T09:17:13.537Z,23.45
2023-04-11T09:19:45.126Z,22.64
2023-04-11T09:22:15.658Z,22.89
2023-04-11T09:24:43.018Z,22.71
2023-04-11T09:27:15.642Z,22.83
2023-04-11T09:29:45.254Z,23.60
2023-04-11T09:32:27.460Z,23.38
2023-04-11T09:35:18.717Z,21.68
2023-04-11T09:37:50.312Z,22.11
2023-04-11T09:40:18.390Z,22.89
2023-04-11T09:42:46.116Z,24.27
2023-04-11T09:45:17.549Z,24.45
2023-04-11T09:47:45.722Z,24.50
2023-04-11T09:50:12.917Z,22.92
2023-04-11T09:52:41.798Z,22.49
2023-04-11T09:55:11.695Z,22.81
2023-04-11T09:57:40.681Z,22.27
2023-04-11T10:00:17.171Z,22.28
2023-04-11T10:02:45.174Z,22.38
2023-04-11T10:05:13.396Z,22.40
2023-04-11T10:07:55.711Z,22.88
2023-04-11T10:10:24.029Z,23.45
2023-04-11T10:12:51.523Z,23.31
2023-04-11T10:15:19.253Z,24.53
2023-04-11T10:18:05.401Z,23.05
2023-04-11T10:20:39.217Z,24.09
2023-04-11T10:23:07.568Z,23.97
2023-04-11T10:25:48.400Z,23.82
2023-04-11T10:28:29.533Z,23.53
2023-04-11T10:31:00.514Z,23.62
2023-04-11T10:33:28.158Z,23.74
2023-04-11T10:35:59.301Z,23.99
2023-04-11T10:38:43.231Z,24.11
2023-04-11T10:41:17.887Z,24.29
2023-04-11T10:43:46.021Z,24.91
2023-04-11T10:46:19.614Z,22.63
2023-04-11T10:49:03.204Z,22.61
2023-04-11T10:51:31.509Z,23.39
2023-04-11T10:54:02.783Z,23.46
2023-04-11T10:56:50.580Z,23.24
2023-04-11T10:59:34.310Z,22.67
2023-04-11T11:02:02.172Z,22.47
2023-04-11T11:04:32.560Z,22.73
2023-04-11T11:07:01.540Z,22.67
2023-04-11T11:09:28.946Z,22.59
2023-04-11T11:12:09.229Z,21.77
2023-04-11T11:14:36.608Z,21.67
2023-04-11T11:17:04.129Z,22.14
2023-04-11T11:19:31.495Z,21.88
2023-04-11T11:22:03.867Z,21.61
2023-04-11T11:24:31.207Z,21.35
2023-04-11T11:26:58.950Z,22.03
2023-04-11T11:29:30.050Z,21.86
2023-04-11T11:31:57.622Z,21.35
2023-04-11T11:34:31.519Z,21.16
2023-04-11T11:36:59.601Z,21.54
2023-04-11T11:39:27.521Z,21.87
2023-04-11T11:41:54.794Z,21.13
2023-04-11T11:44:23.123Z,21.19
2023-04-11T11:47:06.480Z,21.40
2023-04-11T11:49:48.874Z,20.82
2023-04-11T11:52:34.814Z,20.65
2023-04-11T11:55:03.695Z,20.81
2023-04-11T11:57:31.182Z,21.12
2023-04-11T12:00:00.633Z,21.41
2023-04-11T12:02:28.289Z,20.98
2023-04-11T12:05:00.036Z,20.65
2023-04-11T12:07:30.319Z,20.63
2023-04-11T12:10:02.626Z,20.79
2023-04-11T12:12:36.825Z,20.40
2023-04-11T12:15:13.798Z,20.26
2023-04-11T12:17:41.362Z,20.34
2023-04-11T12:20:09.003Z,20.50
2023-04-11T12:22:36.464Z,20.79
2023-04-11T12:25:04.529Z,20.67
2023-04-11T12:27:33.178Z,20.75
2023-04-11T12:30:00.699Z,21.06
2023-04-11T12:32:28.419Z,21.14
2023-04-11T12:34:55.580Z,21.02
2023-04-11T12:37:22.909Z,21.27
2023-04-11T12:39:50.049Z,21.46
2023-04-11T12:42:21.025Z,21.38
2023-04-11T12:44:51.114Z,21.76
2023-04-11T12:47:18.360Z,21.58
2023-04-11T12:49:45.684Z,21.75
2023-04-11T12:52:12.754Z,21.89
2023-04-11T12:54:39.794Z,21.87
2023-04-11T12:57:07.693Z,21.89
2023-04-11T12:59:34.835Z,21.77
2023-04-11T13:02:02.086Z,21.67
2023-04-11T13:04:29.535Z,21.74
2023-04-11T13:07:00.994Z,21.52
2023-04-11T13:09:34.268Z,21.49
2023-04-11T13:12:04.143Z,21.52
2023-04-11T13:14:31.314Z,21.55
2023-04-11T13:16:58.406Z,21.69
2023-04-11T13:19:25.701Z,21.53
2023-04-11T13:21:52.803Z,21.56
2023-04-11T13:24:19.857Z,21.79
2023-04-11T13:26:46.982Z,21.84
2023-04-11T13:29:14.088Z,21.37
2023-04-11T13:31:41.477Z,21.04
2023-04-11T13:34:08.748Z,20.83
2023-04-11T13:36:36.013Z,20.75
2023-04-11T13:39:03.553Z,21.02
2023-04-11T13:41:32.411Z,21.16
2023-04-11T13:43:59.645Z,21.28
2023-04-11T13:46:27.271Z,20.98
2023-04-11T13:48:54.559Z,20.94
2023-04-11T13:51:21.825Z,21.08
2023-04-11T13:53:48.961Z,20.80
2023-04-11T13:56:16.064Z,21.06
2023-04-11T13:58:43.133Z,21.24
2023-04-11T14:01:10.524Z,21.13
2023-04-11T14:03:37.913Z,20.79
2023-04-11T14:06:05.410Z,20.80
2023-04-11T14:08:32.649Z,20.81
2023-04-11T14:10:59.721Z,21.14
2023-04-11T14:13:27.258Z,21.23
2023-04-11T14:16:05.328Z,20.81
2023-04-11T14:18:35.787Z,20.71
2023-04-11T14:21:03.811Z,20.72
2023-04-11T14:23:31.033Z,20.93
2023-04-11T14:25:58.081Z,20.71
2023-04-11T14:28:26.820Z,20.42
2023-04-11T14:30:55.593Z,20.11
2023-04-11T14:33:23.228Z,20.06
2023-04-11T14:35:51.060Z,20.05
2023-04-11T14:38:18.178Z,20.35
2023-04-11T14:40:45.521Z,20.14
2023-04-11T14:43:12.658Z,19.94
2023-04-11T14:45:39.692Z,19.85
2023-04-11T14:48:06.805Z,20.09
2023-04-11T14:50:34.050Z,20.08
2023-04-11T14:53:01.230Z,19.99
2023-04-11T14:55:28.354Z,20.34
2023-04-11T14:57:55.883Z,20.75
2023-04-11T15:00:24.608Z,20.82
2023-04-11T15:02:53.168Z,20.82
2023-04-11T15:05:20.699Z,20.68
2023-04-11T15:07:48.861Z,20.47
2023-04-11T15:10:17.076Z,20.67
2023-04-11T15:12:44.360Z,20.84
2023-04-11T15:15:11.922Z,20.78
2023-04-11T15:17:40.907Z,20.88
2023-04-11T15:20:09.536Z,20.81
2023-04-11T15:22:41.429Z,20.43
2023-04-11T15:25:10.940Z,20.21
2023-04-11T15:27:38.470Z,20.01
2023-04-11T15:30:07.329Z,20.04
2023-04-11T15:32:34.896Z,20.07
2023-04-11T15:35:02.196Z,20.07
2023-04-11T15:37:29.301Z,20.11
2023-04-11T15:39:57.796Z,19.97
2023-04-11T15:42:25.014Z,19.85
2023-04-11T15:44:52.224Z,19.95
2023-04-11T15:47:19.475Z,20.03
2023-04-11T15:49:46.680Z,20.11
2023-04-11T15:52:13.849Z,20.04
2023-04-11T15:54:40.963Z,20.12
2023-04-11T15:57:08.026Z,20.26
2023-04-11T15:59:37.957Z,20.40
2023-04-11T16:02:05.452Z,20.21
2023-04-11T16:04:38.557Z,20.07
2023-04-11T16:07:06.652Z,20.25
2023-04-11T16:09:34.699Z,20.25
2023-04-11T16:12:02.196Z,20.18
2023-04-11T16:14:29.422Z,20.09
2023-04-11T16:16:57.369Z,20.08
2023-04-11T16:19:24.900Z,20.07
2023-04-11T16:21:52.040Z,20.15
2023-04-11T16:24:19.200Z,20.14
2023-04-11T16:26:46.328Z,20.00
2023-04-11T16:29:13.375Z,20.06
2023-04-11T16:31:40.555Z,20.15
2023-04-11T16:34:07.588Z,20.10
2023-04-11T16:36:35.454Z,20.24
2023-04-11T16:39:04.279Z,19.91
2023-04-11T16:41:36.189Z,19.87
2023-04-11T16:44:05.694Z,19.78
2023-04-11T16:46:32.777Z,19.71
2023-04-11T16:48:59.855Z,19.71
2023-04-11T16:51:27.310Z,19.76
2023-04-11T16:53:54.574Z,19.72
2023-04-11T16:56:21.787Z,19.55
2023-04-11T16:58:48.869Z,19.47
2023-04-11T17:01:16.145Z,19.53
2023-04-11T17:03:43.830Z,19.45
2023-04-11T17:06:14.850Z,19.37
2023-04-11T17:08:42.476Z,19.40
2023-04-11T17:11:10.698Z,19.32
2023-04-11T17:13:38.281Z,19.26
2023-04-11T17:16:06.135Z,19.20
2023-04-11T17:18:33.384Z,19.25
2023-04-11T17:21:00.801Z,19.04
2023-04-11T17:23:41.363Z,19.06
2023-04-11T17:26:09.589Z,19.27
2023-04-11T17:28:36.781Z,19.13
2023-04-11T17:31:22.347Z,19.07
2023-04-11T17:33:49.655Z,18.86
2023-04-11T17:36:16.901Z,18.85
2023-04-11T17:38:44.652Z,18.75
2023-04-11T17:41:15.097Z,18.67
2023-04-11T17:43:43.625Z,18.63
2023-04-11T17:46:10.800Z,18.48
2023-04-11T17:48:37.937Z,18.46
2023-04-11T17:51:08.322Z,18.36
2023-04-11T17:53:35.678Z,18.35
2023-04-11T17:56:04.477Z,18.22
2023-04-11T17:58:32.021Z,18.16
2023-04-11T18:00:59.583Z,18.02
2023-04-11T18:03:26.853Z,17.92
2023-04-11T18:05:54.748Z,17.82
2023-04-11T18:08:28.778Z,17.70
2023-04-11T18:11:00.502Z,17.64
2023-04-11T18:13:28.058Z,17.53
2023-04-11T18:15:55.185Z,17.45
2023-04-11T18:18:22.417Z,17.36
2023-04-11T18:20:49.506Z,17.36
2023-04-11T18:23:16.777Z,17.30
2023-04-11T18:25:43.816Z,17.22
2023-04-11T18:28:10.902Z,17.16
2023-04-11T18:30:38.006Z,17.17
2023-04-11T18:33:05.204Z,17.18
2023-04-11T18:35:32.512Z,17.05
2023-04-11T18:38:00.270Z,16.94
2023-04-11T18:40:28.064Z,16.85
2023-04-11T18:42:56.422Z,16.69
2023-04-11T18:45:24.025Z,16.71
2023-04-11T18:47:51.460Z,16.67
2023-04-11T18:50:18.921Z,16.68
2023-04-11T18:52:48.555Z,16.64
2023-04-11T18:55:17.700Z,16.64
2023-04-11T18:57:48.919Z,16.63
2023-04-11T19:00:19.038Z,16.75
2023-04-11T19:02:47.682Z,16.77
2023-04-11T19:05:15.931Z,16.75
2023-04-11T19:07:43.787Z,16.78
2023-04-11T19:10:11.831Z,16.93
2023-04-11T19:12:39.950Z,17.05
2023-04-11T19:15:09.376Z,17.03
2023-04-11T19:17:38.507Z,16.74
2023-04-11T19:20:16.552Z,16.37
2023-04-11T19:22:44.239Z,16.23
2023-04-11T19:25:13.009Z,16.17
2023-04-11T19:27:42.174Z,16.16
2023-04-11T19:30:10.802Z,16.09
2023-04-11T19:32:43.780Z,16.05
2023-04-11T19:35:12.589Z,15.71
2023-04-11T19:37:41.330Z,15.46
2023-04-11T19:40:16.628Z,15.51
2023-04-11T19:42:47.513Z,15.50
2023-04-11T19:45:19.225Z,15.64
2023-04-11T19:47:47.136Z,15.70
2023-04-11T19:50:14.617Z,15.78
2023-04-11T19:52:43.928Z,15.99
2023-04-11T19:55:11.780Z,15.68
2023-04-11T19:57:39.083Z,15.53
2023-04-11T20:00:13.993Z,15.35
2023-04-11T20:02:46.389Z,15.48
2023-04-11T20:05:14.948Z,15.54
2023-04-11T20:07:44.907Z,15.66
2023-04-11T20:10:14.516Z,15.65
2023-04-11T20:12:43.236Z,15.52
2023-04-11T20:15:10.700Z,15.47
2023-04-11T20:17:37.966Z,15.54
2023-04-11T20:20:13.051Z,15.59
2023-04-11T20:22:40.812Z,15.42
2023-04-11T20:25:08.297Z,15.22
2023-04-11T20:27:35.503Z,14.97
2023-04-11T20:30:06.875Z,14.98
2023-04-11T20:32:34.222Z,14.81
2023-04-11T20:35:03.248Z,14.71
2023-04-11T20:37:31.615Z,14.60
2023-04-11T20:39:58.842Z,14.38
2023-04-11T20:42:28.249Z,14.30
2023-04-11T20:45:07.603Z,14.22
2023-04-11T20:47:37.223Z,14.25
2023-04-11T20:50:05.434Z,14.32
2023-04-11T20:52:32.897Z,14.36
2023-04-11T20:55:00.310Z,14.40
2023-04-11T20:57:29.946Z,14.43
2023-04-11T20:59:57.582Z,14.30
2023-04-11T21:02:26.106Z,14.33
2023-04-11T21:04:53.843Z,14.27
2023-04-11T21:07:21.472Z,14.31
2023-04-11T21:09:49.029Z,14.29
2023-04-11T21:12:16.274Z,14.34
2023-04-11T21:14:43.344Z,14.43
2023-04-11T21:17:10.689Z,14.43
2023-04-11T21:19:38.162Z,14.30
2023-04-11T21:22:05.602Z,14.28
2023-04-11T21:24:33.383Z,14.31
2023-04-11T21:27:01.301Z,14.33
2023-04-11T21:29:28.799Z,14.18
2023-04-11T21:31:55.861Z,14.32
2023-04-11T21:34:22.991Z,14.32
2023-04-11T21:36:50.280Z,14.16
2023-04-11T21:39:17.310Z,14.34
2023-04-11T21:41:44.421Z,14.28
2023-04-11T21:44:11.522Z,14.38
2023-04-11T21:46:38.616Z,14.31
2023-04-11T21:49:05.875Z,14.32
2023-04-11T21:51:32.906Z,14.36
2023-04-11T21:53:59.962Z,14.11
2023-04-11T21:56:27.044Z,14.30
2023-04-11T21:58:54.168Z,14.22
2023-04-11T22:01:21.191Z,14.08
2023-04-11T22:03:50.355Z,14.13
2023-04-11T22:06:18.024Z,14.12
2023-04-11T22:08:50.178Z,14.26
2023-04-11T22:11:17.772Z,14.29
2023-04-11T22:13:46.490Z,14.21
2023-04-11T22:16:14.185Z,14.08
2023-04-11T22:18:47.436Z,14.12
2023-04-11T22:21:19.415Z,14.13
2023-04-11T22:23:54.158Z,14.04
2023-04-11T22:26:34.252Z,14.09
2023-04-11T22:29:05.269Z,14.14
2023-04-11T22:31:38.694Z,14.19
2023-04-11T22:34:08.344Z,14.25
2023-04-11T22:36:35.973Z,14.23
2023-04-11T22:39:04.684Z,14.28
2023-04-11T22:41:33.164Z,14.31
2023-04-11T22:44:03.277Z,14.34
2023-04-11T22:46:31.247Z,14.30
2023-04-11T22:48:58.376Z,14.23
2023-04-11T22:51:29.921Z,14.32
2023-04-11T22:53:57.381Z,14.28
2023-04-11T22:56:24.577Z,14.16
2023-04-11T22:58:52.259Z,14.27
2023-04-11T23:01:19.769Z,14.20
2023-04-11T23:03:47.585Z,14.23
2023-04-11T23:06:14.675Z,14.32
2023-04-11T23:08:42.315Z,14.33
2023-04-11T23:11:09.433Z,14.21
2023-04-11T23:13:37.578Z,14.27
2023-04-11T23:16:04.870Z,14.30
2023-04-11T23:18:31.917Z,14.27
2023-04-11T23:20:59.758Z,14.31
2023-04-11T23:23:27.864Z,14.31
2023-04-11T23:25:54.935Z,14.32
2023-04-11T23:28:24.090Z,14.32
2023-04-11T23:30:51.313Z,14.24
2023-04-11T23:33:18.441Z,14.16
2023-04-11T23:35:45.676Z,14.13
2023-04-11T23:38:13.300Z,14.26
2023-04-11T23:40:40.350Z,14.30
2023-04-11T23:43:08.025Z,14.36
2023-04-11T23:45:35.574Z,14.15
2023-04-11T23:48:02.668Z,14.14
2023-04-11T23:50:29.746Z,14.14
2023-04-11T23:52:57.074Z,14.28
2023-04-11T23:55:24.280Z,14.22
2023-04-11T23:57:51.361Z,14.22
